Etusivu
METAR-TAF:

METAR-TAF

Lentoasemat :

Austin, Minnesota, Yhdysvallat

Leveyspiiri: 43-40N, Pituuspiiri: 092-56W, korkeus merenpinnasta: 375 m

Tämänhetkinen sää

Tämä raportti tehtiin 26 minuuttia sitten, kello 21.36 UTC
Tuuli 10 kn etelästä/kaakosta puuskistuen 18 kn:hen
Lämpötila 6°C
Kosteus 75%
Ilmanpaine 1017 hPa
Näkyvyys: 11.3 km
selkeää

METAR: KAUM 162136Z AUTO 15010G18KT 7SM CLR 06/02 A3004 RMK AO2

Aika: 16:02 (22:02 UTC)


TAF: puuttuu

Säähavainnot ja -ennusteet yli 4000 lentoasemalta (METAR- ja TAF-raportit).

Käytössä olevat sääasemat on merkitty karttaan keltaisilla ja punaisilla pisteillä.

Aseta hiiri pisteen päälle nähdäksesi sääaseman nimen.

Klikkaa sitten nähdäksesi säähavainnot ja -ennusteet.

Kartan vaihtaminen: klikkaa mustalla rastilla varustettuja vihreitä pisteitä, niin voit zoomata sisään; viivalla varustettua vihreää pistettä, niin voit zoomata ulos tai vihreitä nuolia, niin pääset viereisille kartoille.


METAR-TAF: